RYR6WD EGSS-LFBZ
Flight info
| Callsign | RYR6WD |
|---|---|
| Flight time | 1h 42m |
| Altitude | 35000 |
| Route | NUGBO M183 SILVA Q41 COWLY UT71 VAPID UN859 SOPIL DCT BALAN DCT LMG DCT UVELI DCT OSMOB DCT VAVIX DCT MAGEC |
| Aircraft | B738/M-SDE3FGILRWY/SB1 |
Departure
| Time | 2026-04-23 21:29 |
|---|---|
| Airport | London Stansted Airport (EGSS) |
Arrival
| Time | 2026-04-23 23:11 |
|---|---|
| Airport | Biarritz Pays Basque airport (LFBZ) |
| Time | Latitude | Longitude | Altitude | Speed | Heading |
|---|---|---|---|---|---|
| 2026-04-23 20:56 | 51.88855 | 0.25362 | 337 ft | 0 kts | 43° |
| 2026-04-23 21:16 | 51.88854 | 0.25361 | 337 ft | 1 kts | 43° |
| 2026-04-23 21:16 | 51.88836 | 0.25336 | 332 ft | 4 kts | 32° |
| 2026-04-23 21:16 | 51.88813 | 0.25319 | 330 ft | 4 kts | 2° |
| 2026-04-23 21:17 | 51.88794 | 0.25327 | 330 ft | 1 kts | 313° |
| 2026-04-23 21:17 | 51.88793 | 0.25327 | 330 ft | 1 kts | 313° |
| 2026-04-23 21:20 | 51.88795 | 0.25325 | 330 ft | 1 kts | 313° |
| 2026-04-23 21:20 | 51.88805 | 0.25306 | 330 ft | 3 kts | 312° |
| 2026-04-23 21:20 | 51.88823 | 0.25275 | 331 ft | 4 kts | 313° |
| 2026-04-23 21:21 | 51.88845 | 0.25236 | 332 ft | 5 kts | 314° |
| 2026-04-23 21:21 | 51.88874 | 0.25188 | 333 ft | 7 kts | 313° |
| 2026-04-23 21:21 | 51.88909 | 0.25126 | 336 ft | 8 kts | 312° |
| 2026-04-23 21:21 | 51.88949 | 0.25057 | 339 ft | 7 kts | 314° |
| 2026-04-23 21:22 | 51.88961 | 0.24986 | 346 ft | 7 kts | 253° |
| 2026-04-23 21:22 | 51.88937 | 0.24919 | 344 ft | 7 kts | 225° |
| 2026-04-23 21:22 | 51.88902 | 0.24866 | 347 ft | 7 kts | 223° |
| 2026-04-23 21:22 | 51.88867 | 0.24813 | 346 ft | 7 kts | 223° |
| 2026-04-23 21:23 | 51.88828 | 0.24755 | 342 ft | 8 kts | 223° |
| 2026-04-23 21:23 | 51.88779 | 0.24682 | 345 ft | 11 kts | 223° |
| 2026-04-23 21:23 | 51.88713 | 0.24582 | 350 ft | 16 kts | 223° |
| 2026-04-23 21:23 | 51.88627 | 0.24452 | 344 ft | 17 kts | 223° |
| 2026-04-23 21:24 | 51.88542 | 0.24325 | 350 ft | 16 kts | 221° |
| 2026-04-23 21:24 | 51.88460 | 0.24202 | 335 ft | 16 kts | 223° |
| 2026-04-23 21:24 | 51.88381 | 0.24084 | 340 ft | 15 kts | 223° |
| 2026-04-23 21:24 | 51.88304 | 0.23972 | 337 ft | 15 kts | 221° |
| 2026-04-23 21:25 | 51.88233 | 0.23860 | 337 ft | 14 kts | 226° |
| 2026-04-23 21:25 | 51.88164 | 0.23755 | 337 ft | 13 kts | 223° |
| 2026-04-23 21:25 | 51.88098 | 0.23655 | 337 ft | 13 kts | 223° |
| 2026-04-23 21:25 | 51.88031 | 0.23556 | 335 ft | 14 kts | 220° |
| 2026-04-23 21:26 | 51.87952 | 0.23438 | 335 ft | 17 kts | 223° |
| 2026-04-23 21:26 | 51.87859 | 0.23296 | 334 ft | 20 kts | 223° |
| 2026-04-23 21:26 | 51.87760 | 0.23145 | 335 ft | 15 kts | 224° |
| 2026-04-23 21:26 | 51.87743 | 0.23013 | 332 ft | 13 kts | 305° |
| 2026-04-23 21:27 | 51.87801 | 0.22912 | 336 ft | 12 kts | 313° |
| 2026-04-23 21:27 | 51.87839 | 0.22848 | 336 ft | 12 kts | 314° |
| 2026-04-23 21:27 | 51.87894 | 0.22752 | 331 ft | 11 kts | 311° |
| 2026-04-23 21:27 | 51.87942 | 0.22681 | 334 ft | 9 kts | 342° |
| 2026-04-23 21:28 | 51.87988 | 0.22711 | 332 ft | 2 kts | 44° |
| 2026-04-23 21:28 | 51.88002 | 0.22732 | 330 ft | 3 kts | 43° |
| 2026-04-23 21:28 | 51.88055 | 0.22812 | 333 ft | 35 kts | 43° |
| 2026-04-23 21:28 | 51.88414 | 0.23349 | 332 ft | 104 kts | 43° |
| 2026-04-23 21:29 | 51.89085 | 0.24353 | 392 ft | 152 kts | 42° |
| 2026-04-23 21:29 | 51.89866 | 0.25531 | 1047 ft | 157 kts | 44° |
| 2026-04-23 21:29 | 51.90705 | 0.26794 | 1657 ft | 170 kts | 46° |
| 2026-04-23 21:29 | 51.91583 | 0.28133 | 2207 ft | 179 kts | 47° |
| 2026-04-23 21:30 | 51.92551 | 0.29463 | 2748 ft | 189 kts | 30° |
| 2026-04-23 21:30 | 51.93918 | 0.29686 | 3053 ft | 213 kts | 353° |
| 2026-04-23 21:30 | 51.95369 | 0.29209 | 3638 ft | 214 kts | 346° |
| 2026-04-23 21:30 | 51.96644 | 0.27844 | 4031 ft | 231 kts | 310° |
| 2026-04-23 21:31 | 51.97252 | 0.25384 | 4403 ft | 244 kts | 278° |
| 2026-04-23 21:31 | 51.97424 | 0.22641 | 4947 ft | 246 kts | 276° |
| 2026-04-23 21:31 | 51.97623 | 0.19761 | 5051 ft | 272 kts | 278° |
| 2026-04-23 21:31 | 51.97886 | 0.16643 | 5001 ft | 283 kts | 279° |
| 2026-04-23 21:32 | 51.98190 | 0.13491 | 5057 ft | 281 kts | 281° |
| 2026-04-23 21:32 | 51.98528 | 0.10373 | 5221 ft | 282 kts | 281° |
| 2026-04-23 21:32 | 51.98869 | 0.07225 | 5298 ft | 286 kts | 280° |
| 2026-04-23 21:32 | 51.98920 | 0.03987 | 5231 ft | 290 kts | 261° |
| 2026-04-23 21:33 | 51.98442 | 0.00840 | 5236 ft | 285 kts | 253° |
| 2026-04-23 21:33 | 51.97927 | -0.02146 | 5267 ft | 280 kts | 256° |
| 2026-04-23 21:33 | 51.97500 | -0.05217 | 5645 ft | 279 kts | 257° |
| 2026-04-23 21:33 | 51.97101 | -0.08279 | 6503 ft | 276 kts | 258° |
| 2026-04-23 21:34 | 51.96707 | -0.11361 | 7091 ft | 285 kts | 258° |
| 2026-04-23 21:34 | 51.96301 | -0.14540 | 7699 ft | 291 kts | 258° |
| 2026-04-23 21:34 | 51.95886 | -0.17772 | 8394 ft | 295 kts | 258° |
| 2026-04-23 21:34 | 51.95463 | -0.21039 | 9144 ft | 297 kts | 258° |
| 2026-04-23 21:35 | 51.95034 | -0.24340 | 9887 ft | 301 kts | 258° |
| 2026-04-23 21:35 | 51.94598 | -0.27679 | 10603 ft | 305 kts | 258° |
| 2026-04-23 21:35 | 51.94143 | -0.31151 | 10893 ft | 327 kts | 258° |
| 2026-04-23 21:35 | 51.93654 | -0.34870 | 11163 ft | 346 kts | 258° |
| 2026-04-23 21:36 | 51.92627 | -0.42635 | 12466 ft | 357 kts | 257° |
| 2026-04-23 21:36 | 51.92103 | -0.46583 | 13213 ft | 361 kts | 257° |
| 2026-04-23 21:36 | 51.91570 | -0.50581 | 13932 ft | 366 kts | 257° |
| 2026-04-23 21:37 | 51.91029 | -0.54633 | 14616 ft | 370 kts | 257° |
| 2026-04-23 21:37 | 51.90482 | -0.58719 | 15380 ft | 372 kts | 257° |
| 2026-04-23 21:37 | 51.89932 | -0.62814 | 16170 ft | 373 kts | 257° |
| 2026-04-23 21:37 | 51.89377 | -0.66933 | 16935 ft | 376 kts | 256° |
| 2026-04-23 21:38 | 51.88817 | -0.71082 | 17677 ft | 379 kts | 256° |
| 2026-04-23 21:38 | 51.88252 | -0.75256 | 18415 ft | 382 kts | 256° |
| 2026-04-23 21:38 | 51.87680 | -0.79469 | 19084 ft | 385 kts | 256° |
| 2026-04-23 21:38 | 51.87103 | -0.83710 | 19732 ft | 387 kts | 256° |
| 2026-04-23 21:39 | 51.86522 | -0.87967 | 20387 ft | 389 kts | 255° |
| 2026-04-23 21:39 | 51.85932 | -0.92247 | 21028 ft | 391 kts | 253° |
| 2026-04-23 21:39 | 51.84913 | -0.96276 | 21607 ft | 387 kts | 232° |
| 2026-04-23 21:39 | 51.83099 | -0.99346 | 22274 ft | 381 kts | 213° |
| 2026-04-23 21:40 | 51.80872 | -1.01367 | 22960 ft | 376 kts | 198° |
| 2026-04-23 21:40 | 51.78344 | -1.02338 | 23613 ft | 373 kts | 187° |
| 2026-04-23 21:40 | 51.75773 | -1.02960 | 24199 ft | 374 kts | 186° |
| 2026-04-23 21:40 | 51.73183 | -1.03559 | 24637 ft | 379 kts | 186° |
| 2026-04-23 21:41 | 51.70560 | -1.04192 | 25036 ft | 383 kts | 187° |
| 2026-04-23 21:41 | 51.67912 | -1.04863 | 25464 ft | 387 kts | 187° |
| 2026-04-23 21:41 | 51.65242 | -1.05553 | 25900 ft | 390 kts | 187° |
| 2026-04-23 21:41 | 51.62536 | -1.05990 | 26304 ft | 392 kts | 179° |
| 2026-04-23 21:42 | 51.59808 | -1.05729 | 26717 ft | 394 kts | 171° |
| 2026-04-23 21:42 | 51.57120 | -1.04800 | 27124 ft | 397 kts | 165° |
| 2026-04-23 21:42 | 51.54433 | -1.03678 | 27501 ft | 401 kts | 165° |
| 2026-04-23 21:42 | 51.51721 | -1.02528 | 27859 ft | 405 kts | 165° |
| 2026-04-23 21:43 | 51.48983 | -1.01371 | 28244 ft | 408 kts | 165° |
| 2026-04-23 21:43 | 51.46224 | -1.00218 | 28630 ft | 412 kts | 165° |
| 2026-04-23 21:43 | 51.43440 | -0.99066 | 28995 ft | 415 kts | 165° |
| 2026-04-23 21:43 | 51.40631 | -0.97912 | 29350 ft | 418 kts | 165° |
| 2026-04-23 21:44 | 51.37803 | -0.96757 | 29692 ft | 421 kts | 165° |
| 2026-04-23 21:44 | 51.34949 | -0.95595 | 30034 ft | 425 kts | 165° |
| 2026-04-23 21:44 | 51.32129 | -0.94452 | 31003 ft | 407 kts | 165° |
| 2026-04-23 21:44 | 51.29420 | -0.93351 | 31823 ft | 399 kts | 165° |
| 2026-04-23 21:45 | 51.26714 | -0.92250 | 31947 ft | 406 kts | 165° |
| 2026-04-23 21:45 | 51.21138 | -0.89993 | 32253 ft | 417 kts | 165° |
| 2026-04-23 21:45 | 51.18328 | -0.88859 | 32665 ft | 416 kts | 165° |
| 2026-04-23 21:46 | 51.15527 | -0.87730 | 33062 ft | 415 kts | 165° |
| 2026-04-23 21:46 | 51.12720 | -0.86599 | 33341 ft | 417 kts | 165° |
| 2026-04-23 21:46 | 51.09897 | -0.85463 | 33618 ft | 419 kts | 165° |
| 2026-04-23 21:46 | 51.07067 | -0.84326 | 33958 ft | 420 kts | 166° |
| 2026-04-23 21:47 | 51.04236 | -0.83189 | 34299 ft | 420 kts | 166° |
| 2026-04-23 21:47 | 51.01399 | -0.82051 | 34557 ft | 421 kts | 166° |
| 2026-04-23 21:47 | 50.98551 | -0.80911 | 34810 ft | 422 kts | 166° |
| 2026-04-23 21:47 | 50.95704 | -0.79771 | 35092 ft | 422 kts | 166° |
| 2026-04-23 21:48 | 50.92858 | -0.78634 | 35361 ft | 422 kts | 166° |
| 2026-04-23 21:48 | 50.87112 | -0.76286 | 35344 ft | 428 kts | 162° |
| 2026-04-23 21:49 | 50.81824 | -0.72144 | 35369 ft | 422 kts | 147° |
| 2026-04-23 21:49 | 50.76933 | -0.67077 | 35348 ft | 418 kts | 147° |
| 2026-04-23 21:50 | 50.72113 | -0.62103 | 35366 ft | 415 kts | 147° |
| 2026-04-23 21:50 | 50.67241 | -0.57136 | 35357 ft | 414 kts | 148° |
| 2026-04-23 21:51 | 50.62422 | -0.52261 | 35340 ft | 418 kts | 148° |
| 2026-04-23 21:51 | 50.57461 | -0.47255 | 35365 ft | 430 kts | 148° |
| 2026-04-23 21:52 | 50.52372 | -0.42128 | 35359 ft | 437 kts | 148° |
| 2026-04-23 21:52 | 50.47248 | -0.36990 | 35345 ft | 434 kts | 148° |
| 2026-04-23 21:53 | 50.42214 | -0.31953 | 35354 ft | 427 kts | 148° |
| 2026-04-23 21:53 | 50.37148 | -0.26895 | 35354 ft | 437 kts | 148° |
| 2026-04-23 21:54 | 50.31965 | -0.21736 | 35346 ft | 443 kts | 148° |
| 2026-04-23 21:54 | 50.26748 | -0.16550 | 35343 ft | 445 kts | 148° |
| 2026-04-23 21:55 | 50.21532 | -0.11382 | 35319 ft | 440 kts | 148° |
| 2026-04-23 21:55 | 50.16398 | -0.06305 | 35334 ft | 439 kts | 148° |
| 2026-04-23 21:56 | 50.11152 | -0.01216 | 35341 ft | 449 kts | 153° |
| 2026-04-23 21:56 | 50.05488 | 0.01964 | 35327 ft | 425 kts | 167° |
| 2026-04-23 21:57 | 49.99843 | 0.04071 | 35332 ft | 419 kts | 167° |
| 2026-04-23 21:57 | 49.94117 | 0.06248 | 35310 ft | 425 kts | 167° |
| 2026-04-23 21:58 | 49.88337 | 0.08495 | 35332 ft | 437 kts | 167° |
| 2026-04-23 21:58 | 49.82356 | 0.10831 | 35308 ft | 442 kts | 167° |
| 2026-04-23 21:59 | 49.76384 | 0.13160 | 35298 ft | 443 kts | 167° |
| 2026-04-23 21:59 | 49.70435 | 0.15469 | 35287 ft | 444 kts | 167° |
| 2026-04-23 22:00 | 49.61448 | 0.19055 | 35289 ft | 445 kts | 166° |
| 2026-04-23 22:00 | 49.55454 | 0.21498 | 35291 ft | 446 kts | 167° |
| 2026-04-23 22:01 | 49.49445 | 0.23927 | 35281 ft | 447 kts | 166° |
| 2026-04-23 22:01 | 49.43430 | 0.26354 | 35296 ft | 447 kts | 167° |
| 2026-04-23 22:02 | 49.37400 | 0.28775 | 35302 ft | 448 kts | 167° |
| 2026-04-23 22:02 | 49.31355 | 0.31196 | 35293 ft | 449 kts | 167° |
| 2026-04-23 22:03 | 49.25310 | 0.33699 | 35284 ft | 450 kts | 166° |
| 2026-04-23 22:03 | 49.19266 | 0.36260 | 35288 ft | 451 kts | 166° |
| 2026-04-23 22:04 | 49.13207 | 0.38814 | 35281 ft | 452 kts | 166° |
| 2026-04-23 22:04 | 49.07140 | 0.41354 | 35258 ft | 453 kts | 166° |
| 2026-04-23 22:05 | 49.01062 | 0.43889 | 35271 ft | 453 kts | 166° |
| 2026-04-23 22:05 | 48.94992 | 0.46414 | 35277 ft | 452 kts | 166° |
| 2026-04-23 22:06 | 48.88925 | 0.48933 | 35264 ft | 451 kts | 166° |
| 2026-04-23 22:06 | 48.82883 | 0.51436 | 35264 ft | 449 kts | 166° |
| 2026-04-23 22:07 | 48.76867 | 0.53903 | 35264 ft | 447 kts | 166° |
| 2026-04-23 22:07 | 48.70898 | 0.56233 | 35262 ft | 445 kts | 167° |
| 2026-04-23 22:08 | 48.64907 | 0.58554 | 35247 ft | 444 kts | 167° |
| 2026-04-23 22:08 | 48.58926 | 0.60883 | 35258 ft | 444 kts | 167° |
| 2026-04-23 22:09 | 48.52925 | 0.63217 | 35260 ft | 446 kts | 167° |
| 2026-04-23 22:09 | 48.46899 | 0.65625 | 35257 ft | 449 kts | 166° |
| 2026-04-23 22:10 | 48.40847 | 0.68103 | 35243 ft | 452 kts | 166° |
| 2026-04-23 22:10 | 48.34752 | 0.70582 | 35249 ft | 455 kts | 166° |
| 2026-04-23 22:11 | 48.28625 | 0.73058 | 35244 ft | 457 kts | 166° |
| 2026-04-23 22:11 | 48.22466 | 0.75530 | 35243 ft | 459 kts | 166° |
| 2026-04-23 22:12 | 48.16281 | 0.77963 | 35226 ft | 460 kts | 167° |
| 2026-04-23 22:12 | 48.10089 | 0.80389 | 35227 ft | 460 kts | 167° |
| 2026-04-23 22:13 | 48.03900 | 0.82815 | 35217 ft | 459 kts | 167° |
| 2026-04-23 22:13 | 47.97728 | 0.85231 | 35232 ft | 458 kts | 167° |
| 2026-04-23 22:14 | 47.92561 | 0.87249 | 35217 ft | 457 kts | 167° |
| 2026-04-23 22:14 | 47.86413 | 0.89644 | 35214 ft | 456 kts | 167° |
| 2026-04-23 22:15 | 47.80318 | 0.92011 | 35218 ft | 455 kts | 167° |
| 2026-04-23 22:15 | 47.74191 | 0.94379 | 35212 ft | 455 kts | 167° |
| 2026-04-23 22:16 | 47.68070 | 0.96741 | 35218 ft | 454 kts | 167° |
| 2026-04-23 22:16 | 47.61946 | 0.99099 | 35211 ft | 455 kts | 167° |
| 2026-04-23 22:17 | 47.55869 | 1.01434 | 35208 ft | 456 kts | 167° |
| 2026-04-23 22:17 | 47.49727 | 1.03789 | 35212 ft | 456 kts | 167° |
| 2026-04-23 22:18 | 47.43562 | 1.06055 | 35198 ft | 456 kts | 172° |
| 2026-04-23 22:18 | 47.37270 | 1.06446 | 35204 ft | 452 kts | 184° |
| 2026-04-23 22:19 | 47.30973 | 1.06188 | 35202 ft | 453 kts | 184° |
| 2026-04-23 22:19 | 47.24669 | 1.05990 | 35198 ft | 454 kts | 184° |
| 2026-04-23 22:20 | 47.18356 | 1.05844 | 35194 ft | 454 kts | 183° |
| 2026-04-23 22:20 | 47.12040 | 1.05709 | 35187 ft | 454 kts | 184° |
| 2026-04-23 22:21 | 47.05730 | 1.05570 | 35187 ft | 453 kts | 184° |
| 2026-04-23 22:21 | 46.99433 | 1.05400 | 35182 ft | 453 kts | 184° |
| 2026-04-23 22:22 | 46.93142 | 1.05116 | 35177 ft | 452 kts | 185° |
| 2026-04-23 22:22 | 46.86864 | 1.04823 | 35185 ft | 451 kts | 185° |
| 2026-04-23 22:23 | 46.80595 | 1.04545 | 35175 ft | 451 kts | 184° |
| 2026-04-23 22:23 | 46.74330 | 1.04275 | 35180 ft | 450 kts | 184° |
| 2026-04-23 22:24 | 46.68067 | 1.04006 | 35173 ft | 450 kts | 184° |
| 2026-04-23 22:24 | 46.61807 | 1.03737 | 35173 ft | 450 kts | 184° |
| 2026-04-23 22:25 | 46.55543 | 1.03469 | 35161 ft | 450 kts | 184° |
| 2026-04-23 22:25 | 46.49281 | 1.03228 | 35167 ft | 450 kts | 184° |
| 2026-04-23 22:26 | 46.43011 | 1.03164 | 35162 ft | 451 kts | 183° |
| 2026-04-23 22:26 | 46.36743 | 1.03136 | 35161 ft | 451 kts | 183° |
| 2026-04-23 22:27 | 46.30473 | 1.03087 | 35159 ft | 450 kts | 183° |
| 2026-04-23 22:27 | 46.24206 | 1.03026 | 35148 ft | 450 kts | 183° |
| 2026-04-23 22:28 | 46.17939 | 1.02962 | 35152 ft | 450 kts | 183° |
| 2026-04-23 22:28 | 46.11680 | 1.02899 | 35155 ft | 449 kts | 183° |
| 2026-04-23 22:29 | 46.05428 | 1.02836 | 35152 ft | 449 kts | 183° |
| 2026-04-23 22:29 | 45.99194 | 1.02774 | 35155 ft | 449 kts | 183° |
| 2026-04-23 22:30 | 45.92953 | 1.02713 | 35152 ft | 448 kts | 183° |
| 2026-04-23 22:30 | 45.86722 | 1.02651 | 35155 ft | 447 kts | 183° |
| 2026-04-23 22:31 | 45.83640 | 1.02249 | 35146 ft | 442 kts | 196° |
| 2026-04-23 22:31 | 45.80753 | 1.00854 | 35166 ft | 435 kts | 209° |
| 2026-04-23 22:31 | 45.78162 | 0.98677 | 35152 ft | 429 kts | 222° |
| 2026-04-23 22:31 | 45.75880 | 0.95951 | 35166 ft | 427 kts | 224° |
| 2026-04-23 22:32 | 45.71359 | 0.90424 | 35143 ft | 428 kts | 224° |
| 2026-04-23 22:32 | 45.66843 | 0.84962 | 35144 ft | 428 kts | 224° |
| 2026-04-23 22:33 | 45.62274 | 0.79499 | 35138 ft | 429 kts | 223° |
| 2026-04-23 22:33 | 45.57691 | 0.74050 | 35132 ft | 429 kts | 223° |
| 2026-04-23 22:34 | 45.53101 | 0.68607 | 35124 ft | 429 kts | 223° |
| 2026-04-23 22:34 | 45.48510 | 0.63174 | 35139 ft | 429 kts | 223° |
| 2026-04-23 22:35 | 45.43914 | 0.57746 | 35120 ft | 429 kts | 223° |
| 2026-04-23 22:35 | 45.39314 | 0.52324 | 35120 ft | 429 kts | 223° |
| 2026-04-23 22:36 | 45.34718 | 0.46920 | 35119 ft | 429 kts | 223° |
| 2026-04-23 22:36 | 45.30168 | 0.41582 | 34841 ft | 419 kts | 223° |
| 2026-04-23 22:37 | 45.27941 | 0.38976 | 34593 ft | 411 kts | 223° |
| 2026-04-23 22:37 | 45.25737 | 0.36397 | 34207 ft | 409 kts | 223° |
| 2026-04-23 22:37 | 45.23555 | 0.33845 | 33827 ft | 405 kts | 223° |
| 2026-04-23 22:37 | 45.21384 | 0.31308 | 33431 ft | 403 kts | 223° |
| 2026-04-23 22:38 | 45.19231 | 0.28795 | 33044 ft | 399 kts | 223° |
| 2026-04-23 22:38 | 45.17095 | 0.26306 | 32694 ft | 396 kts | 223° |
| 2026-04-23 22:38 | 45.14976 | 0.23837 | 32331 ft | 393 kts | 224° |
| 2026-04-23 22:38 | 45.12869 | 0.21385 | 31971 ft | 390 kts | 224° |
| 2026-04-23 22:39 | 45.10782 | 0.18957 | 31621 ft | 387 kts | 224° |
| 2026-04-23 22:39 | 45.08734 | 0.16578 | 31278 ft | 385 kts | 224° |
| 2026-04-23 22:39 | 45.06644 | 0.14152 | 30928 ft | 382 kts | 224° |
| 2026-04-23 22:39 | 45.04619 | 0.11806 | 30590 ft | 380 kts | 224° |
| 2026-04-23 22:40 | 45.02581 | 0.09448 | 30330 ft | 376 kts | 224° |
| 2026-04-23 22:40 | 45.00565 | 0.07119 | 29987 ft | 373 kts | 224° |
| 2026-04-23 22:40 | 44.96579 | 0.02517 | 29271 ft | 367 kts | 224° |
| 2026-04-23 22:41 | 44.94611 | 0.00247 | 28902 ft | 364 kts | 224° |
| 2026-04-23 22:41 | 44.92707 | -0.01949 | 28544 ft | 361 kts | 223° |
| 2026-04-23 22:41 | 44.90769 | -0.04181 | 28219 ft | 358 kts | 223° |
| 2026-04-23 22:41 | 44.88847 | -0.06393 | 27858 ft | 356 kts | 223° |
| 2026-04-23 22:42 | 44.86937 | -0.08590 | 27511 ft | 353 kts | 223° |
| 2026-04-23 22:42 | 44.85037 | -0.10773 | 27161 ft | 351 kts | 223° |
| 2026-04-23 22:42 | 44.83150 | -0.12939 | 26828 ft | 349 kts | 223° |
| 2026-04-23 22:42 | 44.81274 | -0.15092 | 26492 ft | 347 kts | 223° |
| 2026-04-23 22:43 | 44.79406 | -0.17233 | 26152 ft | 345 kts | 223° |
| 2026-04-23 22:43 | 44.77549 | -0.19359 | 25822 ft | 343 kts | 222° |
| 2026-04-23 22:43 | 44.75699 | -0.21475 | 25491 ft | 342 kts | 222° |
| 2026-04-23 22:43 | 44.73860 | -0.23579 | 25162 ft | 340 kts | 222° |
| 2026-04-23 22:44 | 44.72024 | -0.25675 | 24831 ft | 339 kts | 222° |
| 2026-04-23 22:44 | 44.70196 | -0.27763 | 24501 ft | 338 kts | 222° |
| 2026-04-23 22:44 | 44.68372 | -0.29844 | 24174 ft | 337 kts | 222° |
| 2026-04-23 22:44 | 44.66551 | -0.31917 | 23834 ft | 337 kts | 222° |
| 2026-04-23 22:45 | 44.64728 | -0.33977 | 23471 ft | 337 kts | 220° |
| 2026-04-23 22:45 | 44.62832 | -0.35912 | 23079 ft | 337 kts | 217° |
| 2026-04-23 22:45 | 44.60905 | -0.37765 | 22717 ft | 335 kts | 217° |
| 2026-04-23 22:45 | 44.58977 | -0.39591 | 22378 ft | 333 kts | 217° |
| 2026-04-23 22:46 | 44.57066 | -0.41404 | 22053 ft | 331 kts | 217° |
| 2026-04-23 22:46 | 44.55168 | -0.43211 | 21728 ft | 329 kts | 217° |
| 2026-04-23 22:46 | 44.53282 | -0.45013 | 21403 ft | 327 kts | 217° |
| 2026-04-23 22:46 | 44.51412 | -0.46805 | 21077 ft | 325 kts | 217° |
| 2026-04-23 22:47 | 44.49552 | -0.48589 | 20758 ft | 323 kts | 217° |
| 2026-04-23 22:47 | 44.47701 | -0.50365 | 20439 ft | 322 kts | 217° |
| 2026-04-23 22:47 | 44.45863 | -0.52129 | 20129 ft | 320 kts | 217° |
| 2026-04-23 22:47 | 44.44028 | -0.53889 | 19816 ft | 319 kts | 217° |
| 2026-04-23 22:48 | 44.42203 | -0.55637 | 19509 ft | 317 kts | 217° |
| 2026-04-23 22:48 | 44.40386 | -0.57378 | 19187 ft | 316 kts | 217° |
| 2026-04-23 22:48 | 44.38575 | -0.59111 | 18882 ft | 315 kts | 217° |
| 2026-04-23 22:48 | 44.36767 | -0.60841 | 18573 ft | 314 kts | 217° |
| 2026-04-23 22:49 | 44.34966 | -0.62562 | 18237 ft | 313 kts | 216° |
| 2026-04-23 22:49 | 44.33170 | -0.64278 | 17890 ft | 312 kts | 216° |
| 2026-04-23 22:49 | 44.31378 | -0.65988 | 17559 ft | 311 kts | 216° |
| 2026-04-23 22:49 | 44.29598 | -0.67684 | 17240 ft | 309 kts | 216° |
| 2026-04-23 22:50 | 44.27826 | -0.69372 | 16933 ft | 307 kts | 216° |
| 2026-04-23 22:50 | 44.26067 | -0.71050 | 16624 ft | 306 kts | 216° |
| 2026-04-23 22:50 | 44.24316 | -0.72724 | 16321 ft | 304 kts | 216° |
| 2026-04-23 22:50 | 44.22599 | -0.74365 | 16015 ft | 303 kts | 216° |
| 2026-04-23 22:51 | 44.20866 | -0.76019 | 15719 ft | 301 kts | 217° |
| 2026-04-23 22:51 | 44.19143 | -0.77665 | 15420 ft | 300 kts | 217° |
| 2026-04-23 22:51 | 44.17424 | -0.79305 | 15120 ft | 299 kts | 217° |
| 2026-04-23 22:51 | 44.15712 | -0.80936 | 14820 ft | 298 kts | 217° |
| 2026-04-23 22:52 | 44.14006 | -0.82562 | 14528 ft | 297 kts | 217° |
| 2026-04-23 22:52 | 44.12305 | -0.84181 | 14222 ft | 296 kts | 217° |
| 2026-04-23 22:52 | 44.10607 | -0.85796 | 13926 ft | 295 kts | 217° |
| 2026-04-23 22:52 | 44.08915 | -0.87405 | 13598 ft | 294 kts | 217° |
| 2026-04-23 22:53 | 44.07227 | -0.89008 | 13272 ft | 293 kts | 217° |
| 2026-04-23 22:53 | 44.05547 | -0.90603 | 12959 ft | 292 kts | 217° |
| 2026-04-23 22:53 | 44.03876 | -0.92188 | 12653 ft | 290 kts | 216° |
| 2026-04-23 22:53 | 44.02211 | -0.93766 | 12353 ft | 289 kts | 216° |
| 2026-04-23 22:54 | 44.00557 | -0.95333 | 12056 ft | 287 kts | 216° |
| 2026-04-23 22:54 | 43.98913 | -0.96889 | 11765 ft | 285 kts | 216° |
| 2026-04-23 22:54 | 43.97278 | -0.98436 | 11472 ft | 284 kts | 216° |
| 2026-04-23 22:54 | 43.95651 | -0.99974 | 11181 ft | 282 kts | 216° |
| 2026-04-23 22:55 | 43.94075 | -1.01463 | 10901 ft | 281 kts | 216° |
| 2026-04-23 22:55 | 43.92460 | -1.02988 | 10614 ft | 280 kts | 216° |
| 2026-04-23 22:55 | 43.90852 | -1.04505 | 10330 ft | 279 kts | 216° |
| 2026-04-23 22:55 | 43.89260 | -1.06006 | 10158 ft | 273 kts | 216° |
| 2026-04-23 22:56 | 43.87703 | -1.07473 | 9956 ft | 270 kts | 216° |
| 2026-04-23 22:56 | 43.86153 | -1.08933 | 9654 ft | 269 kts | 216° |
| 2026-04-23 22:56 | 43.84610 | -1.10385 | 9372 ft | 267 kts | 215° |
| 2026-04-23 22:56 | 43.83078 | -1.11827 | 9099 ft | 265 kts | 216° |
| 2026-04-23 22:57 | 43.81557 | -1.13257 | 8822 ft | 263 kts | 215° |
| 2026-04-23 22:57 | 43.80046 | -1.14678 | 8560 ft | 262 kts | 215° |
| 2026-04-23 22:57 | 43.78540 | -1.16091 | 8286 ft | 261 kts | 215° |
| 2026-04-23 22:57 | 43.77039 | -1.17499 | 8018 ft | 260 kts | 215° |
| 2026-04-23 22:58 | 43.75557 | -1.18918 | 7804 ft | 255 kts | 220° |
| 2026-04-23 22:58 | 43.74502 | -1.20765 | 7735 ft | 240 kts | 244° |
| 2026-04-23 22:58 | 43.73917 | -1.22850 | 7642 ft | 227 kts | 249° |
| 2026-04-23 22:58 | 43.73405 | -1.24857 | 7525 ft | 215 kts | 249° |
| 2026-04-23 22:59 | 43.73080 | -1.26133 | 7399 ft | 210 kts | 249° |
| 2026-04-23 22:59 | 43.72598 | -1.28016 | 7151 ft | 206 kts | 249° |
| 2026-04-23 22:59 | 43.72116 | -1.29887 | 6822 ft | 207 kts | 249° |
| 2026-04-23 22:59 | 43.71633 | -1.31757 | 6539 ft | 206 kts | 248° |
| 2026-04-23 23:00 | 43.71152 | -1.33612 | 6242 ft | 205 kts | 248° |
| 2026-04-23 23:00 | 43.70671 | -1.35454 | 5949 ft | 203 kts | 248° |
| 2026-04-23 23:00 | 43.70195 | -1.37282 | 5688 ft | 200 kts | 247° |
| 2026-04-23 23:00 | 43.69719 | -1.39098 | 5355 ft | 202 kts | 247° |
| 2026-04-23 23:01 | 43.69248 | -1.40901 | 5142 ft | 198 kts | 248° |
| 2026-04-23 23:01 | 43.68735 | -1.42629 | 5017 ft | 192 kts | 240° |
| 2026-04-23 23:01 | 43.68095 | -1.44241 | 4957 ft | 191 kts | 238° |
| 2026-04-23 23:01 | 43.67438 | -1.45859 | 4876 ft | 195 kts | 238° |
| 2026-04-23 23:02 | 43.66771 | -1.47506 | 4801 ft | 197 kts | 238° |
| 2026-04-23 23:02 | 43.66108 | -1.49157 | 4696 ft | 196 kts | 238° |
| 2026-04-23 23:02 | 43.65453 | -1.50807 | 4602 ft | 196 kts | 238° |
| 2026-04-23 23:02 | 43.64801 | -1.52449 | 4540 ft | 195 kts | 238° |
| 2026-04-23 23:03 | 43.64150 | -1.54088 | 4459 ft | 194 kts | 237° |
| 2026-04-23 23:03 | 43.63503 | -1.55719 | 4391 ft | 193 kts | 237° |
| 2026-04-23 23:03 | 43.62856 | -1.57347 | 4306 ft | 193 kts | 237° |
| 2026-04-23 23:03 | 43.62177 | -1.58939 | 4231 ft | 191 kts | 231° |
| 2026-04-23 23:04 | 43.61393 | -1.60406 | 4178 ft | 190 kts | 230° |
| 2026-04-23 23:04 | 43.60597 | -1.61863 | 4108 ft | 190 kts | 230° |
| 2026-04-23 23:04 | 43.59811 | -1.63309 | 4020 ft | 185 kts | 229° |
| 2026-04-23 23:04 | 43.59054 | -1.64710 | 3930 ft | 180 kts | 229° |
| 2026-04-23 23:05 | 43.58311 | -1.66088 | 3871 ft | 179 kts | 229° |
| 2026-04-23 23:05 | 43.57568 | -1.67467 | 3809 ft | 180 kts | 229° |
| 2026-04-23 23:05 | 43.56823 | -1.68853 | 3745 ft | 180 kts | 229° |
| 2026-04-23 23:05 | 43.56077 | -1.70241 | 3683 ft | 180 kts | 229° |
| 2026-04-23 23:06 | 43.55331 | -1.71630 | 3623 ft | 180 kts | 229° |
| 2026-04-23 23:06 | 43.54597 | -1.72980 | 3547 ft | 177 kts | 224° |
| 2026-04-23 23:06 | 43.53568 | -1.73816 | 3393 ft | 171 kts | 187° |
| 2026-04-23 23:06 | 43.52379 | -1.73848 | 3265 ft | 173 kts | 179° |
| 2026-04-23 23:07 | 43.51197 | -1.73834 | 3086 ft | 171 kts | 180° |
| 2026-04-23 23:07 | 43.50022 | -1.73817 | 2908 ft | 167 kts | 180° |
| 2026-04-23 23:07 | 43.48871 | -1.73796 | 2749 ft | 165 kts | 179° |
| 2026-04-23 23:07 | 43.47724 | -1.73636 | 2563 ft | 169 kts | 158° |
| 2026-04-23 23:08 | 43.46894 | -1.72501 | 2476 ft | 175 kts | 122° |
| 2026-04-23 23:08 | 43.46665 | -1.70836 | 2357 ft | 180 kts | 94° |
| 2026-04-23 23:08 | 43.46689 | -1.69148 | 2219 ft | 174 kts | 95° |
| 2026-04-23 23:08 | 43.46700 | -1.67523 | 2146 ft | 168 kts | 95° |
| 2026-04-23 23:09 | 43.46712 | -1.65942 | 1973 ft | 162 kts | 96° |
| 2026-04-23 23:09 | 43.46722 | -1.64439 | 1776 ft | 153 kts | 95° |
| 2026-04-23 23:09 | 43.46735 | -1.62955 | 1585 ft | 156 kts | 94° |
| 2026-04-23 23:09 | 43.46758 | -1.61459 | 1389 ft | 156 kts | 93° |
| 2026-04-23 23:10 | 43.46767 | -1.59982 | 1214 ft | 153 kts | 94° |
| 2026-04-23 23:10 | 43.46761 | -1.58520 | 1077 ft | 154 kts | 93° |
| 2026-04-23 23:10 | 43.46779 | -1.57071 | 892 ft | 147 kts | 90° |
| 2026-04-23 23:10 | 43.46806 | -1.55694 | 650 ft | 142 kts | 89° |
| 2026-04-23 23:11 | 43.46819 | -1.54335 | 392 ft | 141 kts | 89° |
| 2026-04-23 23:11 | 43.46826 | -1.53009 | 249 ft | 133 kts | 89° |
| 2026-04-23 23:11 | 43.46843 | -1.51914 | 248 ft | 93 kts | 89° |
| 2026-04-23 23:11 | 43.46850 | -1.51335 | 248 ft | 38 kts | 89° |
| 2026-04-23 23:12 | 43.46853 | -1.51084 | 248 ft | 14 kts | 81° |
| 2026-04-23 23:12 | 43.46882 | -1.51003 | 249 ft | 9 kts | 65° |
| 2026-04-23 23:12 | 43.46860 | -1.50967 | 248 ft | 6 kts | 193° |
| 2026-04-23 23:12 | 43.46852 | -1.51020 | 248 ft | 6 kts | 269° |
| 2026-04-23 23:13 | 43.46852 | -1.51085 | 248 ft | 8 kts | 269° |
| 2026-04-23 23:13 | 43.46851 | -1.51181 | 247 ft | 12 kts | 270° |
| 2026-04-23 23:13 | 43.46851 | -1.51306 | 247 ft | 14 kts | 269° |
| 2026-04-23 23:13 | 43.46849 | -1.51452 | 248 ft | 17 kts | 269° |
| 2026-04-23 23:14 | 43.46849 | -1.51623 | 247 ft | 19 kts | 270° |
| 2026-04-23 23:14 | 43.46847 | -1.51811 | 247 ft | 19 kts | 270° |
| 2026-04-23 23:14 | 43.46848 | -1.51994 | 248 ft | 19 kts | 269° |
| 2026-04-23 23:14 | 43.46844 | -1.52179 | 247 ft | 20 kts | 268° |
| 2026-04-23 23:15 | 43.46842 | -1.52377 | 248 ft | 21 kts | 270° |
| 2026-04-23 23:15 | 43.46839 | -1.52579 | 248 ft | 21 kts | 267° |
| 2026-04-23 23:15 | 43.46835 | -1.52789 | 248 ft | 23 kts | 269° |
| 2026-04-23 23:15 | 43.46833 | -1.52985 | 248 ft | 17 kts | 269° |
| 2026-04-23 23:16 | 43.46839 | -1.53096 | 248 ft | 11 kts | 293° |
| 2026-04-23 23:16 | 43.46896 | -1.53159 | 246 ft | 6 kts | 334° |
| 2026-04-23 23:16 | 43.46906 | -1.53165 | 246 ft | 0 kts | 334° |
| 2026-04-23 23:17 | 43.46913 | -1.53170 | 246 ft | 3 kts | 334° |
| 2026-04-23 23:17 | 43.46938 | -1.53187 | 246 ft | 5 kts | 334° |
| 2026-04-23 23:17 | 43.46975 | -1.53211 | 246 ft | 6 kts | 336° |
| 2026-04-23 23:18 | 43.47005 | -1.53227 | 246 ft | 0 kts | 339° |
| 2026-04-23 23:19 | 43.47006 | -1.53228 | 246 ft | 1 kts | 340° |
| 2026-04-23 23:19 | 43.47014 | -1.53231 | 246 ft | 2 kts | 341° |
| 2026-04-23 23:19 | 43.47034 | -1.53235 | 246 ft | 4 kts | 359° |
| 2026-04-23 23:19 | 43.47055 | -1.53236 | 246 ft | 1 kts | 359° |
| 2026-04-23 23:20 | 43.47058 | -1.53236 | 246 ft | 1 kts | 358° |
| 2026-04-23 23:20 | 43.47062 | -1.53236 | 246 ft | 0 kts | 358° |